sensor_id;sensor_type;location;lat;lon;timestamp;pressure;altitude;pressure_sealevel;temperature;humidity
10587;BME280;5341;47.606;7.576;2024-02-04T00:00:07;100297.75;;;9.21;72.83
10587;BME280;5341;47.606;7.576;2024-02-04T00:02:39;100299.56;;;9.20;73.05
10587;BME280;5341;47.606;7.576;2024-02-04T00:05:07;100296.19;;;9.18;72.59
10587;BME280;5341;47.606;7.576;2024-02-04T00:07:34;100292.09;;;9.14;72.38
10587;BME280;5341;47.606;7.576;2024-02-04T00:10:03;100288.59;;;9.14;72.63
10587;BME280;5341;47.606;7.576;2024-02-04T00:12:31;100296.59;;;9.14;72.80
10587;BME280;5341;47.606;7.576;2024-02-04T00:14:59;100296.47;;;9.15;72.81
10587;BME280;5341;47.606;7.576;2024-02-04T00:17:26;100285.78;;;9.15;72.72
10587;BME280;5341;47.606;7.576;2024-02-04T00:19:56;100280.44;;;9.15;72.83
10587;BME280;5341;47.606;7.576;2024-02-04T00:22:24;100282.28;;;9.15;72.85
10587;BME280;5341;47.606;7.576;2024-02-04T00:24:51;100281.44;;;9.14;72.74
10587;BME280;5341;47.606;7.576;2024-02-04T00:27:21;100290.28;;;9.15;72.67
10587;BME280;5341;47.606;7.576;2024-02-04T00:29:49;100289.44;;;9.14;73.08
10587;BME280;5341;47.606;7.576;2024-02-04T00:32:17;100293.78;;;9.15;73.15
10587;BME280;5341;47.606;7.576;2024-02-04T00:34:49;100296.47;;;9.15;72.84
10587;BME280;5341;47.606;7.576;2024-02-04T00:37:17;100297.31;;;9.16;72.85
10587;BME280;5341;47.606;7.576;2024-02-04T00:39:45;100293.78;;;9.15;72.98
10587;BME280;5341;47.606;7.576;2024-02-04T00:42:12;100285.78;;;9.15;73.01
10587;BME280;5341;47.606;7.576;2024-02-04T00:44:42;100282.97;;;9.17;73.08
10587;BME280;5341;47.606;7.576;2024-02-04T00:47:09;100277.66;;;9.17;72.75
10587;BME280;5341;47.606;7.576;2024-02-04T00:49:37;100275.81;;;9.17;72.97
10587;BME280;5341;47.606;7.576;2024-02-04T00:52:05;100268.66;;;9.18;72.89
10587;BME280;5341;47.606;7.576;2024-02-04T00:54:33;100263.19;;;9.19;73.04
10587;BME280;5341;47.606;7.576;2024-02-04T00:57:01;100260.41;;;9.21;72.94
10587;BME280;5341;47.606;7.576;2024-02-04T00:59:28;100258.56;;;9.21;72.90
10587;BME280;5341;47.606;7.576;2024-02-04T01:01:59;100251.41;;;9.22;72.83
10587;BME280;5341;47.606;7.576;2024-02-04T01:04:26;100255.75;;;9.23;72.74
10587;BME280;5341;47.606;7.576;2024-02-04T01:06:54;100257.44;;;9.24;72.56
10587;BME280;5341;47.606;7.576;2024-02-04T01:09:22;100249.44;;;9.24;72.90
10587;BME280;5341;47.606;7.576;2024-02-04T01:11:49;100239.59;;;9.24;72.79
10587;BME280;5341;47.606;7.576;2024-02-04T01:14:18;100219.94;;;9.25;72.37
10587;BME280;5341;47.606;7.576;2024-02-04T01:16:46;100199.41;;;9.26;72.46
10587;BME280;5341;47.606;7.576;2024-02-04T01:19:15;100194.06;;;9.26;72.13
10587;BME280;5341;47.606;7.576;2024-02-04T01:21:43;100192.41;;;9.25;72.19
10587;BME280;5341;47.606;7.576;2024-02-04T01:24:11;100189.72;;;9.25;72.34
10587;BME280;5341;47.606;7.576;2024-02-04T01:26:38;100190.72;;;9.24;71.86
10587;BME280;5341;47.606;7.576;2024-02-04T01:29:06;100193.38;;;9.24;71.98
10587;BME280;5341;47.606;7.576;2024-02-04T01:31:33;100195.22;;;9.23;72.01
10587;BME280;5341;47.606;7.576;2024-02-04T01:34:01;100210.25;;;9.24;72.29
10587;BME280;5341;47.606;7.576;2024-02-04T01:36:30;100221.75;;;9.25;72.00
10587;BME280;5341;47.606;7.576;2024-02-04T01:38:58;100220.91;;;9.24;71.60
10587;BME280;5341;47.606;7.576;2024-02-04T01:41:26;100219.09;;;9.25;71.96
10587;BME280;5341;47.606;7.576;2024-02-04T01:43:54;100202.38;;;9.23;71.70
10587;BME280;5341;47.606;7.576;2024-02-04T01:46:23;100190.72;;;9.24;71.97
10587;BME280;5341;47.606;7.576;2024-02-04T01:48:50;100190.72;;;9.24;72.12
10587;BME280;5341;47.606;7.576;2024-02-04T01:51:19;100198.72;;;9.24;71.70
10587;BME280;5341;47.606;7.576;2024-02-04T01:53:50;100206.72;;;9.24;71.84
10587;BME280;5341;47.606;7.576;2024-02-04T01:56:19;100200.41;;;9.25;72.10
10587;BME280;5341;47.606;7.576;2024-02-04T01:58:48;100212.06;;;9.24;71.82
10587;BME280;5341;47.606;7.576;2024-02-04T02:01:16;100215.72;;;9.23;71.81
10587;BME280;5341;47.606;7.576;2024-02-04T02:03:44;100221.06;;;9.23;71.82
10587;BME280;5341;47.606;7.576;2024-02-04T02:06:12;100234.41;;;9.23;72.12
10587;BME280;5341;47.606;7.576;2024-02-04T02:08:41;100236.22;;;9.22;71.76
10587;BME280;5341;47.606;7.576;2024-02-04T02:11:13;100243.41;;;9.22;71.63
10587;BME280;5341;47.606;7.576;2024-02-04T02:13:44;100241.56;;;9.22;72.08
10587;BME280;5341;47.606;7.576;2024-02-04T02:16:17;100234.53;;;9.21;72.14
10587;BME280;5341;47.606;7.576;2024-02-04T02:18:49;100226.53;;;9.21;71.56
10587;BME280;5341;47.606;7.576;2024-02-04T02:21:30;100224.72;;;9.22;72.20
10587;BME280;5341;47.606;7.576;2024-02-04T02:24:11;100220.34;;;9.21;72.18
10587;BME280;5341;47.606;7.576;2024-02-04T02:26:43;100207.84;;;9.21;72.28
10587;BME280;5341;47.606;7.576;2024-02-04T02:29:12;100204.34;;;9.21;71.45
10587;BME280;5341;47.606;7.576;2024-02-04T02:31:40;100206.13;;;9.20;71.78
10587;BME280;5341;47.606;7.576;2024-02-04T02:34:08;100218.53;;;9.21;71.47
10587;BME280;5341;47.606;7.576;2024-02-04T02:36:40;100219.47;;;9.20;71.93
10587;BME280;5341;47.606;7.576;2024-02-04T02:39:15;100229.22;;;9.21;72.00
10587;BME280;5341;47.606;7.576;2024-02-04T02:41:49;100231.88;;;9.21;71.92
10587;BME280;5341;47.606;7.576;2024-02-04T02:44:17;100228.38;;;9.21;72.13
10587;BME280;5341;47.606;7.576;2024-02-04T02:46:46;100226.53;;;9.21;71.98
10587;BME280;5341;47.606;7.576;2024-02-04T02:49:14;100233.69;;;9.21;72.15
10587;BME280;5341;47.606;7.576;2024-02-04T02:51:42;100240.72;;;9.22;71.86
10587;BME280;5341;47.606;7.576;2024-02-04T02:54:10;100238.06;;;9.22;71.77
10587;BME280;5341;47.606;7.576;2024-02-04T02:56:37;100233.56;;;9.22;72.09
10587;BME280;5341;47.606;7.576;2024-02-04T02:59:06;100235.38;;;9.22;72.30
10587;BME280;5341;47.606;7.576;2024-02-04T03:01:38;100235.38;;;9.22;72.07
10587;BME280;5341;47.606;7.576;2024-02-04T03:04:06;100240.72;;;9.22;72.22
10587;BME280;5341;47.606;7.576;2024-02-04T03:06:33;100242.56;;;9.21;72.46
10587;BME280;5341;47.606;7.576;2024-02-04T03:09:01;100247.88;;;9.21;72.48
10587;BME280;5341;47.606;7.576;2024-02-04T03:11:29;100253.22;;;9.21;72.33
10587;BME280;5341;47.606;7.576;2024-02-04T03:13:56;100247.06;;;9.21;72.23
10587;BME280;5341;47.606;7.576;2024-02-04T03:16:26;100245.22;;;9.21;72.82
10587;BME280;5341;47.606;7.576;2024-02-04T03:18:53;100232.72;;;9.22;72.18
10587;BME280;5341;47.606;7.576;2024-02-04T03:21:21;100223.88;;;9.21;72.13
10587;BME280;5341;47.606;7.576;2024-02-04T03:23:49;100237.22;;;9.21;71.95
10587;BME280;5341;47.606;7.576;2024-02-04T03:26:17;100241.56;;;9.22;72.14
10587;BME280;5341;47.606;7.576;2024-02-04T03:28:47;100238.91;;;9.22;72.16
10587;BME280;5341;47.606;7.576;2024-02-04T03:31:19;100243.41;;;9.22;72.07
10587;BME280;5341;47.606;7.576;2024-02-04T03:33:49;100255.91;;;9.21;72.49
10587;BME280;5341;47.606;7.576;2024-02-04T03:36:21;100257.97;;;9.18;71.99
10587;BME280;5341;47.606;7.576;2024-02-04T03:38:49;100263.44;;;9.16;72.07
10587;BME280;5341;47.606;7.576;2024-02-04T03:41:17;100260.94;;;9.15;72.32
10587;BME280;5341;47.606;7.576;2024-02-04T03:43:45;100262.88;;;9.13;72.25
10587;BME280;5341;47.606;7.576;2024-02-04T03:46:13;100276.25;;;9.13;72.58
10587;BME280;5341;47.606;7.576;2024-02-04T03:48:42;100278.19;;;9.10;72.27
10587;BME280;5341;47.606;7.576;2024-02-04T03:51:16;100267.53;;;9.10;72.33
10587;BME280;5341;47.606;7.576;2024-02-04T03:53:47;100269.34;;;9.10;72.91
10587;BME280;5341;47.606;7.576;2024-02-04T03:56:15;100269.34;;;9.10;72.68
10587;BME280;5341;47.606;7.576;2024-02-04T03:58:42;100266.69;;;9.10;72.15
10587;BME280;5341;47.606;7.576;2024-02-04T04:01:10;100270.34;;;9.09;72.43
10587;BME280;5341;47.606;7.576;2024-02-04T04:03:39;100271.19;;;9.09;72.54
10587;BME280;5341;47.606;7.576;2024-02-04T04:06:07;100270.19;;;9.10;72.76
10587;BME280;5341;47.606;7.576;2024-02-04T04:08:37;100265.69;;;9.11;72.50
10587;BME280;5341;47.606;7.576;2024-02-04T04:11:06;100268.38;;;9.11;72.26
10587;BME280;5341;47.606;7.576;2024-02-04T04:13:34;100262.19;;;9.10;72.46
10587;BME280;5341;47.606;7.576;2024-02-04T04:16:02;100252.34;;;9.11;72.40
10587;BME280;5341;47.606;7.576;2024-02-04T04:18:29;100249.69;;;9.11;72.14
10587;BME280;5341;47.606;7.576;2024-02-04T04:20:57;100255.03;;;9.11;72.29
10587;BME280;5341;47.606;7.576;2024-02-04T04:23:24;100251.50;;;9.10;72.02
10587;BME280;5341;47.606;7.576;2024-02-04T04:25:54;100254.19;;;9.10;72.59
10587;BME280;5341;47.606;7.576;2024-02-04T04:28:21;100239.84;;;9.12;72.10
10587;BME280;5341;47.606;7.576;2024-02-04T04:30:49;100238.16;;;9.10;72.29
10587;BME280;5341;47.606;7.576;2024-02-04T04:33:16;100246.19;;;9.10;72.32
10587;BME280;5341;47.606;7.576;2024-02-04T04:35:44;100245.34;;;9.10;72.27
10587;BME280;5341;47.606;7.576;2024-02-04T04:38:11;100232.97;;;9.09;72.75
10587;BME280;5341;47.606;7.576;2024-02-04T04:40:39;100226.75;;;9.08;72.16
10587;BME280;5341;47.606;7.576;2024-02-04T04:43:08;100222.16;;;9.10;72.60
10587;BME280;5341;47.606;7.576;2024-02-04T04:45:36;100228.47;;;9.09;71.99
10587;BME280;5341;47.606;7.576;2024-02-04T04:48:04;100236.47;;;9.09;71.88
10587;BME280;5341;47.606;7.576;2024-02-04T04:50:33;100232.09;;;9.08;72.19
10587;BME280;5341;47.606;7.576;2024-02-04T04:53:01;100234.75;;;9.08;71.76
10587;BME280;5341;47.606;7.576;2024-02-04T04:55:29;100226.91;;;9.07;71.94
10587;BME280;5341;47.606;7.576;2024-02-04T04:57:57;100237.56;;;9.07;71.53
10587;BME280;5341;47.606;7.576;2024-02-04T05:00:26;100225.34;;;9.04;72.13
10587;BME280;5341;47.606;7.576;2024-02-04T05:02:54;100216.50;;;9.04;71.88
10587;BME280;5341;47.606;7.576;2024-02-04T05:05:21;100213.13;;;9.02;71.84
10587;BME280;5341;47.606;7.576;2024-02-04T05:07:49;100222.97;;;9.01;72.27
10587;BME280;5341;47.606;7.576;2024-02-04T05:10:16;100220.44;;;9.00;71.88
10587;BME280;5341;47.606;7.576;2024-02-04T05:12:44;100227.59;;;8.99;72.26
10587;BME280;5341;47.606;7.576;2024-02-04T05:15:11;100233.06;;;8.98;72.24
10587;BME280;5341;47.606;7.576;2024-02-04T05:17:42;100220.72;;;8.97;71.80
10587;BME280;5341;47.606;7.576;2024-02-04T05:20:10;100230.50;;;8.96;72.50
10587;BME280;5341;47.606;7.576;2024-02-04T05:22:38;100232.47;;;8.94;72.34
10587;BME280;5341;47.606;7.576;2024-02-04T05:25:06;100234.31;;;8.94;72.57
10587;BME280;5341;47.606;7.576;2024-02-04T05:27:36;100234.44;;;8.92;72.50
10587;BME280;5341;47.606;7.576;2024-02-04T05:30:04;100223.91;;;8.91;72.39
10587;BME280;5341;47.606;7.576;2024-02-04T05:32:32;100214.22;;;8.90;72.39
10587;BME280;5341;47.606;7.576;2024-02-04T05:35:01;100220.53;;;8.89;72.41
10587;BME280;5341;47.606;7.576;2024-02-04T05:37:29;100233.19;;;8.87;72.51
10587;BME280;5341;47.606;7.576;2024-02-04T05:39:57;100246.50;;;8.87;72.63
10587;BME280;5341;47.606;7.576;2024-02-04T05:42:25;100248.47;;;8.85;72.34
10587;BME280;5341;47.606;7.576;2024-02-04T05:44:52;100242.28;;;8.84;72.68
10587;BME280;5341;47.606;7.576;2024-02-04T05:47:20;100235.25;;;8.83;72.51
10587;BME280;5341;47.606;7.576;2024-02-04T05:49:49;100241.44;;;8.84;72.43
10587;BME280;5341;47.606;7.576;2024-02-04T05:52:19;100236.22;;;8.82;72.42
10587;BME280;5341;47.606;7.576;2024-02-04T05:54:47;100224.72;;;8.81;72.88
10587;BME280;5341;47.606;7.576;2024-02-04T05:57:15;100217.69;;;8.80;72.86
10587;BME280;5341;47.606;7.576;2024-02-04T05:59:42;100223.88;;;8.81;72.75
10587;BME280;5341;47.606;7.576;2024-02-04T06:02:11;100216.84;;;8.80;72.82
10587;BME280;5341;47.606;7.576;2024-02-04T06:04:38;100225.00;;;8.78;72.79
10587;BME280;5341;47.606;7.576;2024-02-04T06:07:06;100223.31;;;8.77;72.85
10587;BME280;5341;47.606;7.576;2024-02-04T06:09:36;100244.66;;;8.77;72.66
10587;BME280;5341;47.606;7.576;2024-02-04T06:12:04;100258.13;;;8.76;72.31
10587;BME280;5341;47.606;7.576;2024-02-04T06:14:33;100257.41;;;8.74;72.25
10587;BME280;5341;47.606;7.576;2024-02-04T06:17:02;100263.72;;;8.73;72.44
10587;BME280;5341;47.606;7.576;2024-02-04T06:19:31;100258.50;;;8.71;72.43
10587;BME280;5341;47.606;7.576;2024-02-04T06:21:58;100264.81;;;8.70;72.46
10587;BME280;5341;47.606;7.576;2024-02-04T06:24:26;100269.31;;;8.70;72.67
10587;BME280;5341;47.606;7.576;2024-02-04T06:26:55;100269.31;;;8.70;72.59
10587;BME280;5341;47.606;7.576;2024-02-04T06:29:22;100260.47;;;8.69;72.97
10587;BME280;5341;47.606;7.576;2024-02-04T06:31:50;100265.81;;;8.69;72.97
10587;BME280;5341;47.606;7.576;2024-02-04T06:34:18;100268.47;;;8.69;73.11
10587;BME280;5341;47.606;7.576;2024-02-04T06:36:46;100265.81;;;8.69;72.88
10587;BME280;5341;47.606;7.576;2024-02-04T06:39:13;100259.47;;;8.70;72.97
10587;BME280;5341;47.606;7.576;2024-02-04T06:41:41;100265.81;;;8.69;72.86
10587;BME280;5341;47.606;7.576;2024-02-04T06:44:10;100271.84;;;8.71;72.37
10587;BME280;5341;47.606;7.576;2024-02-04T06:46:38;100271.84;;;8.71;72.65
10587;BME280;5341;47.606;7.576;2024-02-04T06:49:06;100268.34;;;8.71;72.37
10587;BME280;5341;47.606;7.576;2024-02-04T06:51:33;100271.75;;;8.73;72.17
10587;BME280;5341;47.606;7.576;2024-02-04T06:54:01;100270.88;;;8.72;72.56
10587;BME280;5341;47.606;7.576;2024-02-04T06:56:28;100264.69;;;8.72;72.75
10587;BME280;5341;47.606;7.576;2024-02-04T06:58:56;100272.69;;;8.72;72.47
10587;BME280;5341;47.606;7.576;2024-02-04T07:01:25;100281.56;;;8.72;72.56
10587;BME280;5341;47.606;7.576;2024-02-04T07:03:52;100288.69;;;8.72;72.29
10587;BME280;5341;47.606;7.576;2024-02-04T07:06:20;100289.56;;;8.72;72.58
10587;BME280;5341;47.606;7.576;2024-02-04T07:08:48;100293.91;;;8.73;72.26
10587;BME280;5341;47.606;7.576;2024-02-04T07:11:15;100291.25;;;8.73;72.14
10587;BME280;5341;47.606;7.576;2024-02-04T07:13:44;100308.94;;;8.74;72.64
10587;BME280;5341;47.606;7.576;2024-02-04T07:16:12;100306.13;;;8.76;72.36
10587;BME280;5341;47.606;7.576;2024-02-04T07:18:41;100303.59;;;8.74;72.15
10587;BME280;5341;47.606;7.576;2024-02-04T07:21:08;100296.59;;;8.73;72.27
10587;BME280;5341;47.606;7.576;2024-02-04T07:23:36;100287.47;;;8.76;72.24
10587;BME280;5341;47.606;7.576;2024-02-04T07:26:03;100290.97;;;8.76;72.14
10587;BME280;5341;47.606;7.576;2024-02-04T07:28:31;100289.16;;;8.77;72.28
10587;BME280;5341;47.606;7.576;2024-02-04T07:30:59;100298.97;;;8.76;72.03
10587;BME280;5341;47.606;7.576;2024-02-04T07:33:26;100313.16;;;8.77;71.83
10587;BME280;5341;47.606;7.576;2024-02-04T07:35:55;100302.50;;;8.77;71.59
10587;BME280;5341;47.606;7.576;2024-02-04T07:38:23;100301.50;;;8.78;71.57
10587;BME280;5341;47.606;7.576;2024-02-04T07:40:51;100289.84;;;8.79;71.68
10587;BME280;5341;47.606;7.576;2024-02-04T07:43:19;100288.03;;;8.79;71.33
10587;BME280;5341;47.606;7.576;2024-02-04T07:45:48;100274.56;;;8.81;71.32
10587;BME280;5341;47.606;7.576;2024-02-04T07:48:15;100280.59;;;8.83;71.21
10587;BME280;5341;47.606;7.576;2024-02-04T07:50:43;100286.78;;;8.84;70.56
10587;BME280;5341;47.606;7.576;2024-02-04T07:53:12;100288.34;;;8.86;70.42
10587;BME280;5341;47.606;7.576;2024-02-04T07:55:39;100287.38;;;8.87;70.85
10587;BME280;5341;47.606;7.576;2024-02-04T07:58:08;100278.25;;;8.90;70.80
10587;BME280;5341;47.606;7.576;2024-02-04T08:00:36;100281.63;;;8.92;70.78
10587;BME280;5341;47.606;7.576;2024-02-04T08:03:03;100283.31;;;8.93;70.80
10587;BME280;5341;47.606;7.576;2024-02-04T08:05:31;100284.88;;;8.95;70.73
10587;BME280;5341;47.606;7.576;2024-02-04T08:08:01;100286.31;;;8.99;70.82
10587;BME280;5341;47.606;7.576;2024-02-04T08:10:31;100268.34;;;9.01;70.18
10587;BME280;5341;47.606;7.576;2024-02-04T08:12:59;100263.56;;;9.05;70.41
10587;BME280;5341;47.606;7.576;2024-02-04T08:15:26;100265.00;;;9.09;69.88
10587;BME280;5341;47.606;7.576;2024-02-04T08:17:54;100260.22;;;9.13;70.04
10587;BME280;5341;47.606;7.576;2024-02-04T08:20:22;100256.44;;;9.15;69.85
10587;BME280;5341;47.606;7.576;2024-02-04T08:22:49;100253.22;;;9.21;70.06
10587;BME280;5341;47.606;7.576;2024-02-04T08:25:17;100245.09;;;9.23;69.74
10587;BME280;5341;47.606;7.576;2024-02-04T08:27:46;100246.47;;;9.27;69.88
10587;BME280;5341;47.606;7.576;2024-02-04T08:30:14;100258.72;;;9.29;69.44
10587;BME280;5341;47.606;7.576;2024-02-04T08:32:44;100262.91;;;9.32;69.55
10587;BME280;5341;47.606;7.576;2024-02-04T08:35:11;100263.50;;;9.35;69.54
10587;BME280;5341;47.606;7.576;2024-02-04T08:37:39;100266.88;;;9.37;69.56
10587;BME280;5341;47.606;7.576;2024-02-04T08:40:07;100260.28;;;9.42;69.13
10587;BME280;5341;47.606;7.576;2024-02-04T08:42:36;100260.97;;;9.44;69.20
10587;BME280;5341;47.606;7.576;2024-02-04T08:45:06;100255.53;;;9.45;69.49
10587;BME280;5341;47.606;7.576;2024-02-04T08:47:33;100251.59;;;9.49;69.59
10587;BME280;5341;47.606;7.576;2024-02-04T08:50:01;100249.47;;;9.53;69.54
10587;BME280;5341;47.606;7.576;2024-02-04T08:52:29;100246.50;;;9.56;69.60
10587;BME280;5341;47.606;7.576;2024-02-04T08:54:57;100260.31;;;9.61;69.67
10587;BME280;5341;47.606;7.576;2024-02-04T08:57:25;100267.19;;;9.63;69.38
10587;BME280;5341;47.606;7.576;2024-02-04T08:59:53;100267.75;;;9.67;69.80
10587;BME280;5341;47.606;7.576;2024-02-04T09:02:22;100265.69;;;9.71;69.82
10587;BME280;5341;47.606;7.576;2024-02-04T09:04:49;100260.03;;;9.74;69.74
10587;BME280;5341;47.606;7.576;2024-02-04T09:07:17;100255.25;;;9.77;69.37
10587;BME280;5341;47.606;7.576;2024-02-04T09:09:44;100246.09;;;9.80;70.02
10587;BME280;5341;47.606;7.576;2024-02-04T09:12:12;100252.88;;;9.84;69.37
10587;BME280;5341;47.606;7.576;2024-02-04T09:14:40;100238.38;;;9.86;69.27
10587;BME280;5341;47.606;7.576;2024-02-04T09:17:09;100240.06;;;9.87;69.28
10587;BME280;5341;47.606;7.576;2024-02-04T09:19:37;100239.09;;;9.88;69.10
10587;BME280;5341;47.606;7.576;2024-02-04T09:22:05;100242.44;;;9.90;69.14
10587;BME280;5341;47.606;7.576;2024-02-04T09:24:33;100242.31;;;9.92;69.09
10587;BME280;5341;47.606;7.576;2024-02-04T09:27:02;100243.03;;;9.94;69.40
10587;BME280;5341;47.606;7.576;2024-02-04T09:29:29;100237.41;;;9.97;69.68
10587;BME280;5341;47.606;7.576;2024-02-04T09:31:57;100246.94;;;9.99;69.88
10587;BME280;5341;47.606;7.576;2024-02-04T09:34:25;100249.19;;;10.04;69.75
10587;BME280;5341;47.606;7.576;2024-02-04T09:36:54;100240.75;;;10.09;69.43
10587;BME280;5341;47.606;7.576;2024-02-04T09:39:22;100245.53;;;10.15;69.72
10587;BME280;5341;47.606;7.576;2024-02-04T09:41:49;100243.28;;;10.20;69.10
10587;BME280;5341;47.606;7.576;2024-02-04T09:44:17;100245.41;;;10.26;70.03
10587;BME280;5341;47.606;7.576;2024-02-04T09:46:45;100243.00;;;10.33;69.48
10587;BME280;5341;47.606;7.576;2024-02-04T09:49:13;100226.09;;;10.42;69.78
10587;BME280;5341;47.606;7.576;2024-02-04T09:51:41;100217.31;;;10.49;68.86
10587;BME280;5341;47.606;7.576;2024-02-04T09:54:11;100216.59;;;10.57;69.17
10587;BME280;5341;47.606;7.576;2024-02-04T09:56:41;100214.31;;;10.62;68.89
10587;BME280;5341;47.606;7.576;2024-02-04T09:59:09;100204.88;;;10.68;68.39
10587;BME280;5341;47.606;7.576;2024-02-04T10:01:37;100209.78;;;10.72;68.76
10587;BME280;5341;47.606;7.576;2024-02-04T10:04:05;100204.81;;;10.77;68.57
10587;BME280;5341;47.606;7.576;2024-02-04T10:06:32;100201.72;;;10.82;68.59
10587;BME280;5341;47.606;7.576;2024-02-04T10:09:00;100207.59;;;10.85;68.09
10587;BME280;5341;47.606;7.576;2024-02-04T10:11:29;100210.13;;;10.87;68.09
10587;BME280;5341;47.606;7.576;2024-02-04T10:13:56;100218.00;;;10.89;67.44
10587;BME280;5341;47.606;7.576;2024-02-04T10:16:25;100219.84;;;10.88;67.87
10587;BME280;5341;47.606;7.576;2024-02-04T10:18:53;100221.41;;;10.91;67.56
10587;BME280;5341;47.606;7.576;2024-02-04T10:21:22;100212.22;;;10.93;67.25
10587;BME280;5341;47.606;7.576;2024-02-04T10:23:51;100218.13;;;10.97;67.91
10587;BME280;5341;47.606;7.576;2024-02-04T10:26:19;100222.16;;;11.01;67.09
10587;BME280;5341;47.606;7.576;2024-02-04T10:28:49;100213.72;;;11.05;67.71
10587;BME280;5341;47.606;7.576;2024-02-04T10:31:18;100213.25;;;11.10;67.06
10587;BME280;5341;47.606;7.576;2024-02-04T10:33:46;100219.13;;;11.13;66.57
10587;BME280;5341;47.606;7.576;2024-02-04T10:36:14;100222.53;;;11.15;67.00
10587;BME280;5341;47.606;7.576;2024-02-04T10:38:43;100213.34;;;11.18;66.57
10587;BME280;5341;47.606;7.576;2024-02-04T10:41:14;100208.53;;;11.22;66.93
10587;BME280;5341;47.606;7.576;2024-02-04T10:43:43;100213.56;;;11.25;66.78
10587;BME280;5341;47.606;7.576;2024-02-04T10:46:13;100215.13;;;11.27;66.28
10587;BME280;5341;47.606;7.576;2024-02-04T10:48:48;100214.97;;;11.29;65.73
10587;BME280;5341;47.606;7.576;2024-02-04T10:51:25;100203.25;;;11.30;66.07
10587;BME280;5341;47.606;7.576;2024-02-04T10:53:54;100208.31;;;11.33;66.33
10587;BME280;5341;47.606;7.576;2024-02-04T10:56:30;100199.81;;;11.37;66.10
10587;BME280;5341;47.606;7.576;2024-02-04T10:58:58;100191.34;;;11.42;66.42
10587;BME280;5341;47.606;7.576;2024-02-04T11:01:31;100195.78;;;11.51;66.20
10587;BME280;5341;47.606;7.576;2024-02-04T11:04:00;100190.63;;;11.58;66.44
10587;BME280;5341;47.606;7.576;2024-02-04T11:06:28;100193.56;;;11.64;66.45
10587;BME280;5341;47.606;7.576;2024-02-04T11:08:57;100190.94;;;11.72;66.40
10587;BME280;5341;47.606;7.576;2024-02-04T11:11:26;100195.41;;;11.82;66.61
10587;BME280;5341;47.606;7.576;2024-02-04T11:13:56;100202.38;;;11.92;66.09
10587;BME280;5341;47.606;7.576;2024-02-04T11:16:41;100196.59;;;12.05;66.07
10587;BME280;5341;47.606;7.576;2024-02-04T11:19:23;100191.97;;;12.15;66.57
10587;BME280;5341;47.606;7.576;2024-02-04T11:22:13;100189.03;;;12.26;65.44
10587;BME280;5341;47.606;7.576;2024-02-04T11:25:01;100182.84;;;12.34;65.57
10587;BME280;5341;47.606;7.576;2024-02-04T11:27:30;100180.41;;;12.41;65.15
10587;BME280;5341;47.606;7.576;2024-02-04T11:29:58;100180.91;;;12.44;64.67
10587;BME280;5341;47.606;7.576;2024-02-04T11:32:28;100168.34;;;12.45;64.03
10587;BME280;5341;47.606;7.576;2024-02-04T11:34:55;100170.19;;;12.44;64.12
10587;BME280;5341;47.606;7.576;2024-02-04T11:37:27;100163.81;;;12.45;64.00
10587;BME280;5341;47.606;7.576;2024-02-04T11:39:57;100163.50;;;12.48;63.96
10587;BME280;5341;47.606;7.576;2024-02-04T11:42:24;100166.03;;;12.50;64.28
10587;BME280;5341;47.606;7.576;2024-02-04T11:45:06;100162.69;;;12.56;64.49
10587;BME280;5341;47.606;7.576;2024-02-04T11:47:37;100156.88;;;12.60;64.51
10587;BME280;5341;47.606;7.576;2024-02-04T11:50:05;100155.19;;;12.68;64.07
10587;BME280;5341;47.606;7.576;2024-02-04T11:52:33;100159.78;;;12.75;64.43
10587;BME280;5341;47.606;7.576;2024-02-04T11:55:01;100161.78;;;12.81;63.50
10587;BME280;5341;47.606;7.576;2024-02-04T11:57:30;100163.47;;;12.82;62.99
10587;BME280;5341;47.606;7.576;2024-02-04T11:59:57;100171.69;;;12.81;62.71
10587;BME280;5341;47.606;7.576;2024-02-04T12:02:26;100169.50;;;12.76;62.59
10587;BME280;5341;47.606;7.576;2024-02-04T12:04:56;100173.53;;;12.72;62.20
10587;BME280;5341;47.606;7.576;2024-02-04T12:07:24;100169.28;;;12.70;62.03
10587;BME280;5341;47.606;7.576;2024-02-04T12:09:51;100167.44;;;12.70;62.53
10587;BME280;5341;47.606;7.576;2024-02-04T12:12:20;100158.38;;;12.71;62.39
10587;BME280;5341;47.606;7.576;2024-02-04T12:14:48;100160.09;;;12.72;62.40
10587;BME280;5341;47.606;7.576;2024-02-04T12:17:16;100157.88;;;12.68;62.30
10587;BME280;5341;47.606;7.576;2024-02-04T12:19:46;100153.19;;;12.61;61.63
10587;BME280;5341;47.606;7.576;2024-02-04T12:22:14;100157.00;;;12.59;61.79
10587;BME280;5341;47.606;7.576;2024-02-04T12:24:42;100156.69;;;12.62;62.09
10587;BME280;5341;47.606;7.576;2024-02-04T12:27:11;100154.69;;;12.64;62.42
10587;BME280;5341;47.606;7.576;2024-02-04T12:29:43;100151.00;;;12.65;61.76
10587;BME280;5341;47.606;7.576;2024-02-04T12:32:13;100146.63;;;12.64;62.24
10587;BME280;5341;47.606;7.576;2024-02-04T12:34:41;100145.13;;;12.61;61.57
10587;BME280;5341;47.606;7.576;2024-02-04T12:37:15;100142.75;;;12.58;61.56
10587;BME280;5341;47.606;7.576;2024-02-04T12:39:42;100145.75;;;12.55;61.64
10587;BME280;5341;47.606;7.576;2024-02-04T12:42:10;100138.53;;;12.56;61.69
10587;BME280;5341;47.606;7.576;2024-02-04T12:44:37;100141.22;;;12.56;61.20
10587;BME280;5341;47.606;7.576;2024-02-04T12:47:05;100138.53;;;12.56;61.61
10587;BME280;5341;47.606;7.576;2024-02-04T12:49:33;100126.50;;;12.60;61.54
10587;BME280;5341;47.606;7.576;2024-02-04T12:52:04;100131.72;;;12.61;61.60
10587;BME280;5341;47.606;7.576;2024-02-04T12:54:42;100133.88;;;12.66;61.53
10587;BME280;5341;47.606;7.576;2024-02-04T12:57:10;100129.38;;;12.67;61.62
10587;BME280;5341;47.606;7.576;2024-02-04T12:59:48;100127.03;;;12.72;61.30
10587;BME280;5341;47.606;7.576;2024-02-04T13:02:16;100119.34;;;12.77;61.73
10587;BME280;5341;47.606;7.576;2024-02-04T13:04:43;100120.50;;;12.82;61.63
10587;BME280;5341;47.606;7.576;2024-02-04T13:07:12;100113.84;;;12.86;61.47
10587;BME280;5341;47.606;7.576;2024-02-04T13:09:41;100105.44;;;12.89;61.50
10587;BME280;5341;47.606;7.576;2024-02-04T13:12:09;100112.66;;;12.89;61.38
10587;BME280;5341;47.606;7.576;2024-02-04T13:14:38;100104.44;;;12.90;61.14